Flight Track Log - Related Links

Times and Time Zones

All times are in EDT time to prevent confusion due to time zone crossing. See the CCA1073 flight status page for this flight to view local times or setup timezone preferences in your user account.

Time Position Orientation Groundspeed Altitude Reporting Facility
EDT Latitude Longitude Course Direction KTS MPH feet Rate Location/Type
06:12PM 31.2795 122.1981 68° East  Level Estimated
06:13PM 31.3248 122.3337 69° East  Level Estimated
06:14PM 31.3700 122.4693 69° East  Level Estimated
06:15PM 31.4150 122.6051 69° East  Level Estimated
06:16PM 31.4599 122.7410 69° East  Level Estimated
06:17PM 31.5046 122.8770 69° East  Level Estimated
06:18PM 31.5491 123.0132 69° East  Level Estimated
06:19PM 31.5936 123.1495 69° East  Level Estimated
06:20PM 31.6379 123.2859 69° East  Level Estimated
06:21PM 31.6820 123.4225 69° East  Level Estimated
06:22PM 31.7260 123.5592 69° East  Level Estimated
06:23PM 31.7698 123.6960 69° East  Level Estimated
06:24PM 31.8136 123.8329 69° East  Level Estimated
06:25PM 31.8571 123.9700 69° East  Level Estimated
06:26PM 31.9005 124.1072 70° East  Level Estimated
06:27PM 31.9438 124.2446 70° East  Level Estimated
06:28PM 31.9869 124.3820 70° East  Level Estimated
06:29PM 32.0299 124.5196 70° East  Level Estimated
06:30PM 32.0727 124.6574 70° East  Level Estimated
06:31PM 32.1154 124.7952 70° East  Level Estimated
06:32PM 32.1579 124.9332 70° East  Level Estimated
06:33PM 32.2002 125.0713 70° East  Level Estimated
06:34PM 32.2425 125.2095 70° East  Level Estimated
06:35PM 32.2845 125.3479 70° East  Level Estimated
06:36PM 32.3265 125.4864 70° East  Level Estimated
06:37PM 32.3682 125.6250 70° East  Level Estimated
06:38PM 32.4098 125.7638 70° East  Level Estimated
06:39PM 32.4513 125.9026 70° East  Level Estimated
06:40PM 32.4926 126.0417 71° East  Level Estimated
06:41PM 32.5338 126.1808 71° East  Level Estimated
06:42PM 32.5748 126.3201 71° East  Level Estimated
06:43PM 32.6156 126.4594 71° East  Level Estimated
06:44PM 32.6563 126.5990 71° East  Level Estimated
06:45PM 32.6969 126.7386 71° East  Level Estimated
06:46PM 32.7372 126.8784 71° East  Level Estimated
06:47PM 32.7775 127.0183 71° East  Level Estimated
06:48PM 32.8176 127.1583 71° East  Level Estimated
06:49PM 32.8575 127.2984 71° East  Level Estimated
06:50PM 32.8972 127.4387 71° East  Level Estimated
06:51PM 32.9368 127.5791 71° East  Level Estimated
06:52PM 32.9763 127.7196 71° East  Level Estimated
06:53PM 33.0156 127.8603 72° East  Level Estimated
06:54PM 33.0547 128.0011 72° East  Level Estimated
06:55PM 33.0937 128.1420 72° East  Level Estimated
06:56PM 33.1325 128.2830 72° East  Level Estimated
06:57PM 33.1712 128.4241 72° East  Level Estimated
06:58PM 33.2097 128.5654 72° East  Level Estimated
06:59PM 33.2480 128.7068 72° East  Level Estimated
07:00PM 33.2862 128.8483 72° East  Level Estimated
07:01PM 33.3242 128.9900 72° East  Level Estimated
07:02PM 33.3621 129.1317 72° East  Level Estimated
07:03PM 33.3997 129.2736 72° East  Level Estimated
07:04PM 33.4373 129.4156 72° East  Level Estimated
07:05PM 33.4747 129.5578 72° East  Level Estimated
07:06PM 33.5119 129.7000 73° East  Level Estimated
07:07PM 33.5489 129.8424 73° East  Level Estimated
07:08PM 33.5858 129.9849 73° East  Level Estimated
07:09PM 33.6225 130.1275 73° East  Level Estimated
07:10PM 33.6591 130.2703 73° East  Level Estimated
07:11PM 33.6955 130.4132 73° East  Level Estimated
07:12PM 33.7317 130.5562 73° East  Level Estimated
07:13PM 33.7678 130.6993 73° East  Level Estimated
07:14PM 33.8037 130.8425 73° East  Level Estimated
07:15PM 33.8394 130.9858 73° East  Level Estimated
07:16PM 33.8750 131.1293 73° East  Level Estimated
07:17PM 33.9104 131.2729 73° East  Level Estimated
07:18PM 33.9456 131.4166 73° East  Level Estimated
07:19PM 33.9807 131.5604 74° East  Level Estimated
07:20PM 34.0155 131.7044 74° East  Level Estimated
07:21PM 34.0503 131.8484 74° East  Level Estimated
07:22PM 34.0849 131.9926 74° East  Level Estimated
07:23PM 34.1192 132.1369 74° East  Level Estimated
07:24PM 34.1535 132.2813 74° East  Level Estimated
07:25PM 34.1875 132.4259 74° East  Level Estimated
07:26PM 34.2214 132.5705 74° East  Level Estimated
07:27PM 34.2551 132.7153 74° East  Level Estimated
07:28PM 34.2887 132.8602 74° East  Level Estimated
07:29PM 34.3220 133.0051 74° East  Level Estimated
07:30PM 34.3553 133.1503 74° East  Level Estimated
07:31PM 34.3883 133.2955 75° East  Level Estimated
07:32PM 34.4211 133.4408 75° East  Level Estimated
07:33PM 34.4538 133.5863 75° East  Level Estimated
07:34PM 34.4864 133.7318 75° East  Level Estimated
07:35PM 34.5187 133.8775 75° East  Level Estimated
07:36PM 34.5509 134.0233 75° East  Level Estimated
07:37PM 34.5829 134.1692 75° East  Level Estimated
07:38PM 34.6147 134.3152 75° East  Level Estimated
07:39PM 34.6463 134.4614 75° East  Level Estimated
07:40PM 34.6778 134.6076 75° East  Level Estimated
07:41PM 34.7091 134.7540 75° East  Level Estimated
07:42PM 34.7402 134.9004 75° East  Level Estimated
07:43PM 34.7712 135.0470 76° East  Level Estimated
07:44PM 34.8020 135.1937 76° East  Level Estimated
07:45PM 34.8326 135.3405 76° East  Level Estimated
07:46PM 34.8630 135.4874 76° East  Level Estimated
07:47PM 34.8932 135.6344 76° East  Level Estimated
07:48PM 34.9233 135.7815 76° East  Level Estimated
07:49PM 34.9532 135.9287 76° East  Level Estimated
07:50PM 34.9829 136.0760 76° East  Level Estimated
07:51PM 35.0124 136.2235 76° East  Level Estimated
07:52PM 35.0418 136.3710 76° East  Level Estimated
07:53PM 35.0710 136.5187 76° East  Level Estimated
07:54PM 35.1000 136.6664 76° East  Level Estimated
07:55PM 35.1288 136.8143 77° East  Level Estimated
07:56PM 35.1574 136.9623 77° East  Level Estimated
07:57PM 35.1859 137.1103 77° East  Level Estimated
07:58PM 35.2142 137.2585 77° East  Level Estimated
07:59PM 35.2423 137.4068 77° East  Level Estimated
08:00PM 35.2702 137.5551 77° East  Level Estimated
08:01PM 35.2979 137.7036 77° East  Level Estimated
08:02PM 35.3255 137.8522 77° East  Level Estimated
08:03PM 35.3528 138.0009 77° East  Level Estimated
08:04PM 35.3800 138.1497 77° East  Level Estimated
08:05PM 35.4070 138.2986 77° East  Level Estimated
08:06PM 35.4339 138.4475 77° East  Level Estimated
08:07PM 35.4605 138.5966 78° East  Level Estimated
08:08PM 35.4870 138.7458 78° East  Level Estimated
08:09PM 35.5132 138.8951 78° East  Level Estimated
08:10PM 35.5393 139.0444 78° East  Level Estimated
08:11PM 35.5652 139.1939 78° East  Level Estimated
08:12PM 35.5910 139.3435 78° East  Level Estimated
08:13PM 35.6165 139.4931 78° East  Level Estimated
08:14PM 35.6418 139.6429 78° East  Level Estimated
08:15PM 35.6670 139.7928 78° East  Level Estimated
08:16PM 35.6920 139.9427 78° East  Level Estimated
08:17PM 35.7168 140.0927 78° East  Level Estimated
08:18PM 35.7414 140.2429 79° East  Level Estimated
08:19PM 35.7647 140.3864 79° East  Level Estimated
08:20PM 35.7647 140.3864 North  Level Estimated
08:21PM 35.7647 140.3864 North  Level Estimated
08:22PM 35.7647 140.3864 North  Level Estimated
08:23PM 35.7647 140.3864 North  Level Estimated
08:24PM 35.7647 140.3864 North  Level Estimated
08:25PM 35.7647 140.3864 North  Level Estimated
08:26PM 35.7647 140.3864 North  Level Estimated
08:27PM 35.7647 140.3864 North  Level Estimated
08:28PM 35.7647 140.3864 North  Level Estimated
08:29PM 35.7647 140.3864 North  Level Estimated
08:30PM 35.7647 140.3864 North  Level Estimated
08:31PM 35.7647 140.3864 North  Level Estimated
08:32PM 35.7647 140.3864 North  Level Estimated
08:33PM 35.7647 140.3864 North  Level Estimated
08:34PM 35.7647 140.3864 North  Level Estimated
08:35PM 35.7647 140.3864 North  Level Estimated

Login

Don't have an account? Register now (free) for customized features, flight alerts, and more!